Seaboard Ranger — A8RF7 — position and weather

sailwx.info

Track history (hours):
 
Tides and Currents Weather Stations Pressure Air Temp Water Temp Dewpoint Dewpoint Depression Visibility Wind Speed Wind Dir Waves Ship Positions

Seaboard Ranger

Last reported at 2017-Nov-16 08:17 UTC. Time now 2017-Nov-19 06:40 UTC.
Position N 20°40' W 074°36'.

Length 148 m; draft 8 m.

Type: Ship. MMSI: 636091654.

Date/timePositionNaut miles runAvg speedWind from/ knotsBaromVisibWave heightAir tempDewpointWater temp
2017-Nov-16 08:17N 20°40' W 074°36'716.6
2017-Nov-16 07:53N 20°43' W 074°42'39414.5
2017-Nov-15 04:50N 25°27' W 079°38'514.9
2017-Nov-15 04:30N 25°32' W 079°39'714.2
2017-Nov-15 04:00N 25°39' W 079°41'714.1
2017-Nov-15 03:30N 25°42' W 079°49'714.3
2017-Nov-15 03:00N 25°44' W 079°56'714.8
2017-Nov-15 02:31N 25°45' W 080°04'5 9.7
2017-Nov-15 02:00N 25°46' W 080°09'1 1.3
2017-Nov-15 01:29N 25°46' W 080°10'0 0.0
2017-Nov-15 00:59N 25°46' W 080°10'0 0.0
2017-Nov-15 00:29N 25°46' W 080°10'0 0.0
2017-Nov-14 23:59N 25°46' W 080°10'0 0.0
2017-Nov-14 23:29N 25°46' W 080°10'0 0.0
2017-Nov-14 22:58N 25°46' W 080°10'0 0.0
2017-Nov-14 22:28N 25°46' W 080°10'0 0.0
2017-Nov-14 21:58N 25°46' W 080°10'0 0.0
2017-Nov-14 21:28N 25°46' W 080°10'0 0.0
2017-Nov-14 21:00N 25°46' W 080°10'0 0.0
2017-Nov-14 20:30N 25°46' W 080°10'0 0.0
2017-Nov-14 20:00N 25°46' W 080°10'0 0.0
2017-Nov-14 19:27N 25°46' W 080°10'0 0.0
2017-Nov-14 19:00N 25°46' W 080°10'0 0.0
2017-Nov-14 18:29N 25°46' W 080°10'0 0.0
2017-Nov-14 17:59N 25°46' W 080°10'0 0.0
2017-Nov-14 17:29N 25°46' W 080°10'0 0.0
2017-Nov-14 16:59N 25°46' W 080°10'0 0.0
2017-Nov-14 16:28N 25°46' W 080°10'0 0.0
2017-Nov-14 15:58N 25°46' W 080°10'0 0.0
2017-Nov-14 15:28N 25°46' W 080°10'0 0.0
2017-Nov-14 14:58N 25°46' W 080°10'0 0.0
2017-Nov-14 14:22N 25°46' W 080°10'0 0.0
2017-Nov-14 14:00N 25°46' W 080°10'0 0.0
2017-Nov-14 13:30N 25°46' W 080°10'0 0.0
2017-Nov-14 13:00N 25°46' W 080°10'0 0.0
2017-Nov-14 12:30N 25°46' W 080°10'0 0.0
2017-Nov-14 12:00N 25°46' W 080°10'0 0.2
2017-Nov-14 11:30N 25°46' W 080°10'3 6.2
2017-Nov-14 11:00N 25°45' W 080°07'4 8.4
2017-Nov-14 10:30N 25°46' W 080°02'4 8.1
2017-Nov-14 10:00N 25°42' W 080°00'713.4
2017-Nov-14 09:30N 25°36' W 079°59'815.4
2017-Nov-14 09:00N 25°29' W 079°55'815.2
2017-Nov-14 08:30N 25°22' W 079°52'2515.0
2017-Nov-14 06:50N 24°58' W 079°43'514.7
2017-Nov-14 06:30N 24°54' W 079°41'714.8
2017-Nov-14 06:00N 24°47' W 079°39'  
2017-Nov-07 20:49N 25°28' W 079°38'514.5
2017-Nov-07 20:30N 25°33' W 079°39'714.5
2017-Nov-07 20:00N 25°40' W 079°40'612.7
2017-Nov-07 19:30N 25°45' W 079°44'714.4
2017-Nov-07 19:00N 25°45' W 079°52'715.0
2017-Nov-07 18:30N 25°45' W 080°00'612.9
2017-Nov-07 18:00N 25°46' W 080°07'3 5.3
2017-Nov-07 17:31N 25°46' W 080°10'0 0.1
2017-Nov-07 17:00N 25°46' W 080°10'0 0.0
2017-Nov-07 16:30N 25°46' W 080°10'0 0.0
2017-Nov-07 15:54N 25°46' W 080°10'0 0.0
2017-Nov-07 15:30N 25°46' W 080°10'0 0.0
2017-Nov-07 14:59N 25°46' W 080°10'0 0.0
2017-Nov-07 14:29N 25°46' W 080°10'0 0.0
2017-Nov-07 13:56N 25°46' W 080°10'0 0.0
2017-Nov-07 13:29N 25°46' W 080°10'0 0.0
2017-Nov-07 12:59N 25°46' W 080°10'0 0.0
2017-Nov-07 12:28N 25°46' W 080°10'0 0.0
2017-Nov-07 11:58N 25°46' W 080°10'0 0.0
2017-Nov-07 11:28N 25°46' W 080°10'0 0.0
2017-Nov-07 10:58N 25°46' W 080°10'0 0.0
2017-Nov-07 10:28N 25°46' W 080°10'0 0.0
2017-Nov-07 10:00N 25°46' W 080°10'0 0.0
2017-Nov-07 09:30N 25°46' W 080°10'0 0.0
2017-Nov-07 09:00N 25°46' W 080°10'0 0.0
2017-Nov-07 08:30N 25°46' W 080°10'0 0.0
2017-Nov-07 07:59N 25°46' W 080°10'0 0.0
2017-Nov-07 07:29N 25°46' W 080°10'0 0.0
2017-Nov-07 06:59N 25°46' W 080°10'0 0.0
2017-Nov-07 06:29N 25°46' W 080°10'0 0.0
2017-Nov-07 05:59N 25°46' W 080°10'0 0.0
2017-Nov-07 05:28N 25°46' W 080°10'0 0.0
2017-Nov-07 04:58N 25°46' W 080°10'0 0.0
2017-Nov-07 04:28N 25°46' W 080°10'0 0.0
2017-Nov-07 03:58N 25°46' W 080°10'0 0.0
2017-Nov-07 03:31N 25°46' W 080°10'2 3.0
2017-Nov-07 03:00N 25°46' W 080°09'4 8.7
2017-Nov-07 02:30N 25°46' W 080°04'510.4
2017-Nov-07 02:01N 25°42' W 080°00'815.2
2017-Nov-07 01:31N 25°35' W 079°57'815.5
2017-Nov-07 01:01N 25°27' W 079°54'  
Track history (hours):
 
Tides and Currents Weather Stations Pressure Air Temp Water Temp Dewpoint Dewpoint Depression Visibility Wind Speed Wind Dir Waves Ship Positions

Seaboard Ranger

Last reported at 2017-Nov-16 08:17 UTC. Time now 2017-Nov-19 06:40 UTC.
Position N 20°40' W 074°36'.

Length 148 m; draft 8 m.

Type: Ship. MMSI: 636091654.

Date/timePositionNaut miles runAvg speedWind from/ knotsBaromVisibWave heightAir tempDewpointWater temp
2017-Nov-16 08:17N 20°40' W 074°36'716.6
2017-Nov-16 07:53N 20°43' W 074°42'39414.5
2017-Nov-15 04:50N 25°27' W 079°38'514.9
2017-Nov-15 04:30N 25°32' W 079°39'714.2
2017-Nov-15 04:00N 25°39' W 079°41'714.1
2017-Nov-15 03:30N 25°42' W 079°49'714.3
2017-Nov-15 03:00N 25°44' W 079°56'714.8
2017-Nov-15 02:31N 25°45' W 080°04'5 9.7
2017-Nov-15 02:00N 25°46' W 080°09'1 1.3
2017-Nov-15 01:29N 25°46' W 080°10'0 0.0
2017-Nov-15 00:59N 25°46' W 080°10'0 0.0
2017-Nov-15 00:29N 25°46' W 080°10'0 0.0
2017-Nov-14 23:59N 25°46' W 080°10'0 0.0
2017-Nov-14 23:29N 25°46' W 080°10'0 0.0
2017-Nov-14 22:58N 25°46' W 080°10'0 0.0
2017-Nov-14 22:28N 25°46' W 080°10'0 0.0
2017-Nov-14 21:58N 25°46' W 080°10'0 0.0
2017-Nov-14 21:28N 25°46' W 080°10'0 0.0
2017-Nov-14 21:00N 25°46' W 080°10'0 0.0
2017-Nov-14 20:30N 25°46' W 080°10'0 0.0
2017-Nov-14 20:00N 25°46' W 080°10'0 0.0
2017-Nov-14 19:27N 25°46' W 080°10'0 0.0
2017-Nov-14 19:00N 25°46' W 080°10'0 0.0
2017-Nov-14 18:29N 25°46' W 080°10'0 0.0
2017-Nov-14 17:59N 25°46' W 080°10'0 0.0
2017-Nov-14 17:29N 25°46' W 080°10'0 0.0
2017-Nov-14 16:59N 25°46' W 080°10'0 0.0
2017-Nov-14 16:28N 25°46' W 080°10'0 0.0
2017-Nov-14 15:58N 25°46' W 080°10'0 0.0
2017-Nov-14 15:28N 25°46' W 080°10'0 0.0
2017-Nov-14 14:58N 25°46' W 080°10'0 0.0
2017-Nov-14 14:22N 25°46' W 080°10'0 0.0
2017-Nov-14 14:00N 25°46' W 080°10'0 0.0
2017-Nov-14 13:30N 25°46' W 080°10'0 0.0
2017-Nov-14 13:00N 25°46' W 080°10'0 0.0
2017-Nov-14 12:30N 25°46' W 080°10'0 0.0
2017-Nov-14 12:00N 25°46' W 080°10'0 0.2
2017-Nov-14 11:30N 25°46' W 080°10'3 6.2
2017-Nov-14 11:00N 25°45' W 080°07'4 8.4
2017-Nov-14 10:30N 25°46' W 080°02'4 8.1
2017-Nov-14 10:00N 25°42' W 080°00'713.4
2017-Nov-14 09:30N 25°36' W 079°59'815.4
2017-Nov-14 09:00N 25°29' W 079°55'815.2
2017-Nov-14 08:30N 25°22' W 079°52'2515.0
2017-Nov-14 06:50N 24°58' W 079°43'514.7
2017-Nov-14 06:30N 24°54' W 079°41'714.8
2017-Nov-14 06:00N 24°47' W 079°39'  
2017-Nov-07 20:49N 25°28' W 079°38'514.5
2017-Nov-07 20:30N 25°33' W 079°39'714.5
2017-Nov-07 20:00N 25°40' W 079°40'612.7
2017-Nov-07 19:30N 25°45' W 079°44'714.4
2017-Nov-07 19:00N 25°45' W 079°52'715.0
2017-Nov-07 18:30N 25°45' W 080°00'612.9
2017-Nov-07 18:00N 25°46' W 080°07'3 5.3
2017-Nov-07 17:31N 25°46' W 080°10'0 0.1
2017-Nov-07 17:00N 25°46' W 080°10'0 0.0
2017-Nov-07 16:30N 25°46' W 080°10'0 0.0
2017-Nov-07 15:54N 25°46' W 080°10'0 0.0
2017-Nov-07 15:30N 25°46' W 080°10'0 0.0
2017-Nov-07 14:59N 25°46' W 080°10'0 0.0
2017-Nov-07 14:29N 25°46' W 080°10'0 0.0
2017-Nov-07 13:56N 25°46' W 080°10'0 0.0
2017-Nov-07 13:29N 25°46' W 080°10'0 0.0
2017-Nov-07 12:59N 25°46' W 080°10'0 0.0
2017-Nov-07 12:28N 25°46' W 080°10'0 0.0
2017-Nov-07 11:58N 25°46' W 080°10'0 0.0
2017-Nov-07 11:28N 25°46' W 080°10'0 0.0
2017-Nov-07 10:58N 25°46' W 080°10'0 0.0
2017-Nov-07 10:28N 25°46' W 080°10'0 0.0
2017-Nov-07 10:00N 25°46' W 080°10'0 0.0
2017-Nov-07 09:30N 25°46' W 080°10'0 0.0
2017-Nov-07 09:00N 25°46' W 080°10'0 0.0
2017-Nov-07 08:30N 25°46' W 080°10'0 0.0
2017-Nov-07 07:59N 25°46' W 080°10'0 0.0
2017-Nov-07 07:29N 25°46' W 080°10'0 0.0
2017-Nov-07 06:59N 25°46' W 080°10'0 0.0
2017-Nov-07 06:29N 25°46' W 080°10'0 0.0
2017-Nov-07 05:59N 25°46' W 080°10'0 0.0
2017-Nov-07 05:28N 25°46' W 080°10'0 0.0
2017-Nov-07 04:58N 25°46' W 080°10'0 0.0
2017-Nov-07 04:28N 25°46' W 080°10'0 0.0
2017-Nov-07 03:58N 25°46' W 080°10'0 0.0
2017-Nov-07 03:31N 25°46' W 080°10'2 3.0
2017-Nov-07 03:00N 25°46' W 080°09'4 8.7
2017-Nov-07 02:30N 25°46' W 080°04'510.4
2017-Nov-07 02:01N 25°42' W 080°00'815.2
2017-Nov-07 01:31N 25°35' W 079°57'815.5
2017-Nov-07 01:01N 25°27' W 079°54'  

Dump ship's entire track history